createdAt,value
2019-05-11T00:00:57.275Z,11.50
2019-05-11T00:03:28.897Z,11.50
2019-05-11T00:06:00.346Z,11.50
2019-05-11T00:08:31.900Z,11.40
2019-05-11T00:11:03.760Z,11.40
2019-05-11T00:13:34.945Z,11.40
2019-05-11T00:16:06.229Z,11.40
2019-05-11T00:18:37.338Z,11.40
2019-05-11T00:21:08.509Z,11.30
2019-05-11T00:23:39.721Z,11.30
2019-05-11T00:26:10.993Z,11.20
2019-05-11T00:28:42.235Z,11.20
2019-05-11T00:31:13.778Z,11.10
2019-05-11T00:33:44.882Z,11.00
2019-05-11T00:36:16.164Z,11.10
2019-05-11T00:38:47.936Z,11.10
2019-05-11T00:41:19.447Z,11.10
2019-05-11T00:43:50.564Z,11.00
2019-05-11T00:46:21.763Z,11.00
2019-05-11T00:48:52.974Z,11.00
2019-05-11T00:51:24.184Z,11.00
2019-05-11T00:53:55.443Z,11.00
2019-05-11T00:56:26.723Z,10.90
2019-05-11T00:58:57.939Z,10.90
2019-05-11T01:01:29.118Z,10.90
2019-05-11T01:04:00.277Z,10.90
2019-05-11T01:06:31.524Z,10.90
2019-05-11T01:09:03.630Z,10.90
2019-05-11T01:11:34.854Z,10.80
2019-05-11T01:14:06.546Z,10.90
2019-05-11T01:16:38.106Z,10.90
2019-05-11T01:19:09.357Z,11.00
2019-05-11T01:21:40.572Z,11.10
2019-05-11T01:24:12.064Z,11.10
2019-05-11T01:26:43.613Z,11.30
2019-05-11T01:29:15.062Z,11.30
2019-05-11T01:31:46.236Z,11.30
2019-05-11T01:34:17.426Z,11.10
2019-05-11T01:36:48.989Z,11.00
2019-05-11T01:39:20.255Z,10.90
2019-05-11T01:41:51.717Z,11.00
2019-05-11T01:44:23.103Z,11.00
2019-05-11T01:46:54.306Z,11.00
2019-05-11T01:49:25.501Z,11.00
2019-05-11T01:51:56.585Z,11.00
2019-05-11T01:54:27.861Z,10.90
2019-05-11T01:56:59.023Z,10.90
2019-05-11T01:59:30.105Z,10.80
2019-05-11T02:02:01.237Z,10.70
2019-05-11T02:04:32.416Z,10.70
2019-05-11T02:07:03.783Z,10.70
2019-05-11T02:09:35.081Z,10.70
2019-05-11T02:12:06.406Z,10.70
2019-05-11T02:14:37.584Z,10.60
2019-05-11T02:17:08.789Z,10.70
2019-05-11T02:19:39.907Z,10.80
2019-05-11T02:22:11.094Z,10.80
2019-05-11T02:24:42.486Z,10.70
2019-05-11T02:27:13.817Z,10.70
2019-05-11T02:29:45.196Z,10.80
2019-05-11T02:32:16.312Z,10.70
2019-05-11T02:34:47.754Z,10.40
2019-05-11T02:37:19.235Z,10.30
2019-05-11T02:39:50.399Z,10.20
2019-05-11T02:42:21.735Z,10.30
2019-05-11T02:44:53.279Z,10.30
2019-05-11T02:47:24.422Z,10.50
2019-05-11T02:49:55.585Z,10.70
2019-05-11T02:52:28.439Z,10.80
2019-05-11T02:55:01.795Z,10.80
2019-05-11T02:57:33.438Z,10.70
2019-05-11T03:00:05.852Z,10.80
2019-05-11T03:02:37.098Z,10.80
2019-05-11T03:05:09.074Z,10.90
2019-05-11T03:07:40.792Z,10.90
2019-05-11T03:10:12.150Z,10.80
2019-05-11T03:12:43.432Z,10.80
2019-05-11T03:15:15.318Z,10.70
2019-05-11T03:17:46.755Z,10.80
2019-05-11T03:20:18.106Z,10.80
2019-05-11T03:22:49.358Z,10.80
2019-05-11T03:25:20.646Z,10.80
2019-05-11T03:27:51.964Z,10.70
2019-05-11T03:30:23.720Z,10.70
2019-05-11T03:32:54.945Z,10.70
2019-05-11T03:35:26.699Z,10.70
2019-05-11T03:37:58.047Z,10.60
2019-05-11T03:40:29.463Z,10.60
2019-05-11T03:43:01.624Z,10.60
2019-05-11T03:45:33.813Z,10.60
2019-05-11T03:48:05.421Z,10.60
2019-05-11T03:50:36.711Z,10.50
2019-05-11T03:53:07.997Z,10.50
2019-05-11T03:55:39.083Z,10.40
2019-05-11T03:58:10.619Z,10.40
2019-05-11T04:00:41.725Z,10.40
2019-05-11T04:03:12.880Z,10.40
2019-05-11T04:05:44.396Z,10.40
2019-05-11T04:08:16.202Z,10.40
2019-05-11T04:10:47.636Z,10.40
2019-05-11T04:13:18.747Z,10.50
2019-05-11T04:15:50.660Z,10.40
2019-05-11T04:18:21.857Z,10.30
2019-05-11T04:20:53.195Z,10.40
2019-05-11T04:23:24.398Z,10.40
2019-05-11T04:25:55.560Z,10.40
2019-05-11T04:28:26.861Z,10.40
2019-05-11T04:30:58.144Z,10.40
2019-05-11T04:33:33.004Z,10.40
2019-05-11T04:36:02.177Z,10.40
2019-05-11T04:38:33.388Z,10.40
2019-05-11T04:41:04.569Z,10.40
2019-05-11T04:43:35.806Z,10.40
2019-05-11T04:46:07.168Z,10.40
2019-05-11T04:48:38.759Z,10.30
2019-05-11T04:51:10.193Z,10.30
2019-05-11T04:53:41.615Z,10.30
2019-05-11T04:56:12.783Z,10.40
2019-05-11T04:58:44.418Z,10.40
2019-05-11T05:01:15.728Z,10.50
2019-05-11T05:03:47.564Z,10.50
2019-05-11T05:06:24.468Z,10.60
2019-05-11T05:08:52.996Z,10.60
2019-05-11T05:11:24.308Z,10.60
2019-05-11T05:13:55.563Z,10.80
2019-05-11T05:16:31.178Z,10.80
2019-05-11T05:19:00.393Z,10.70
2019-05-11T05:21:31.500Z,10.80
2019-05-11T05:24:02.682Z,10.80
2019-05-11T05:26:33.990Z,10.80
2019-05-11T05:29:05.204Z,10.80
2019-05-11T05:31:36.585Z,10.70
2019-05-11T05:34:07.991Z,10.60
2019-05-11T05:36:39.259Z,10.60
2019-05-11T05:39:10.490Z,10.60
2019-05-11T05:41:43.309Z,10.70
2019-05-11T05:44:14.725Z,10.70
2019-05-11T05:46:46.007Z,10.60
2019-05-11T05:49:17.271Z,10.60
2019-05-11T05:51:48.750Z,10.60
2019-05-11T05:54:20.233Z,10.60
2019-05-11T05:56:51.642Z,10.70
2019-05-11T05:59:22.810Z,10.70
2019-05-11T06:01:53.966Z,10.60
2019-05-11T06:04:25.329Z,10.60
2019-05-11T06:06:56.866Z,10.70
2019-05-11T06:09:28.435Z,10.70
2019-05-11T06:11:59.870Z,10.60
2019-05-11T06:14:31.047Z,10.60
2019-05-11T06:17:02.316Z,10.50
2019-05-11T06:19:52.716Z,10.50
2019-05-11T06:22:23.814Z,10.50
2019-05-11T06:24:55.063Z,10.40
2019-05-11T06:27:26.810Z,10.50
2019-05-11T06:29:57.909Z,10.50
2019-05-11T06:32:29.152Z,10.50
2019-05-11T06:35:00.532Z,10.50
2019-05-11T06:37:32.047Z,10.70
2019-05-11T06:40:03.301Z,10.80
2019-05-11T06:42:34.815Z,10.80
2019-05-11T06:45:06.591Z,10.70
2019-05-11T06:47:38.513Z,10.80
2019-05-11T06:50:10.238Z,10.80
2019-05-11T06:52:41.373Z,10.80
2019-05-11T06:55:12.687Z,10.90
2019-05-11T06:57:44.321Z,11.00
2019-05-11T07:00:15.995Z,11.10
2019-05-11T07:02:47.158Z,11.10
2019-05-11T07:05:18.773Z,11.10
2019-05-11T07:07:50.448Z,11.10
2019-05-11T07:10:21.830Z,11.10
2019-05-11T07:12:52.980Z,11.20
2019-05-11T07:15:24.603Z,11.20
2019-05-11T07:17:56.101Z,11.10
2019-05-11T07:20:27.432Z,11.00
2019-05-11T07:22:58.648Z,11.00
2019-05-11T07:25:29.917Z,11.10
2019-05-11T07:28:01.079Z,11.10
2019-05-11T07:30:32.390Z,11.00
2019-05-11T07:33:03.664Z,11.00
2019-05-11T07:35:35.707Z,11.00
2019-05-11T07:38:08.344Z,11.10
2019-05-11T07:40:39.689Z,11.10
2019-05-11T07:43:11.050Z,11.20
2019-05-11T07:45:42.409Z,11.30
2019-05-11T07:48:13.714Z,11.50
2019-05-11T07:50:44.883Z,11.50
2019-05-11T07:53:18.659Z,11.60
2019-05-11T07:55:50.001Z,11.50
2019-05-11T07:58:21.211Z,11.60
2019-05-11T08:00:59.055Z,11.50
2019-05-11T08:03:43.701Z,11.50
2019-05-11T08:06:21.930Z,11.60
2019-05-11T08:09:08.115Z,11.60
2019-05-11T08:11:40.936Z,11.70
2019-05-11T08:14:21.860Z,11.80
2019-05-11T08:17:11.600Z,11.60
2019-05-11T08:19:43.578Z,11.60
2019-05-11T08:22:15.067Z,11.50
2019-05-11T08:24:48.140Z,11.60
2019-05-11T08:27:19.559Z,11.50
2019-05-11T08:29:50.858Z,11.40
2019-05-11T08:32:22.190Z,11.40
2019-05-11T08:34:53.878Z,11.40
2019-05-11T08:37:25.569Z,11.30
2019-05-11T08:39:58.636Z,11.40
2019-05-11T08:42:30.027Z,11.40
2019-05-11T08:45:16.058Z,11.40
2019-05-11T08:47:34.512Z,11.60
2019-05-11T08:50:08.030Z,11.70
2019-05-11T08:52:38.918Z,11.80
2019-05-11T08:55:10.900Z,11.80
2019-05-11T08:57:42.461Z,11.90
2019-05-11T09:00:17.960Z,12.10
2019-05-11T09:02:50.794Z,12.10
2019-05-11T09:05:22.509Z,12.20
2019-05-11T09:07:54.186Z,12.30
2019-05-11T09:10:27.859Z,12.50
2019-05-11T09:12:59.027Z,12.50
2019-05-11T09:15:36.778Z,12.50
2019-05-11T09:18:03.632Z,12.50
2019-05-11T09:20:37.650Z,12.60
2019-05-11T09:23:08.353Z,12.50
2019-05-11T09:25:39.672Z,12.40
2019-05-11T09:28:29.466Z,12.20
2019-05-11T09:31:00.359Z,12.20
2019-05-11T09:33:31.542Z,12.20
2019-05-11T09:36:03.082Z,12.20
2019-05-11T09:38:34.370Z,12.10
2019-05-11T09:41:08.088Z,12.20
2019-05-11T09:43:38.582Z,12.20
2019-05-11T09:46:09.695Z,12.10
2019-05-11T09:48:40.906Z,12.00
2019-05-11T09:51:12.089Z,12.00
2019-05-11T09:53:43.260Z,12.10
2019-05-11T09:56:14.510Z,11.90
2019-05-11T09:58:47.932Z,12.10
2019-05-11T10:01:18.951Z,12.10
2019-05-11T10:03:50.271Z,12.10
2019-05-11T10:06:21.540Z,12.10
2019-05-11T10:08:52.968Z,12.10
2019-05-11T10:11:24.265Z,12.00
2019-05-11T10:13:57.632Z,12.00
2019-05-11T10:16:38.802Z,12.20
2019-05-11T10:19:42.711Z,12.30
2019-05-11T10:22:15.031Z,12.30
2019-05-11T10:24:47.701Z,12.50
2019-05-11T10:27:19.249Z,12.70
2019-05-11T10:29:50.573Z,12.90
2019-05-11T10:32:21.849Z,12.70
2019-05-11T10:34:53.471Z,12.70
2019-05-11T10:37:24.604Z,12.60
2019-05-11T10:39:57.761Z,12.60
2019-05-11T10:42:28.760Z,12.70
2019-05-11T10:45:00.180Z,12.60
2019-05-11T10:47:31.395Z,12.60
2019-05-11T10:50:02.568Z,12.90
2019-05-11T10:52:34.455Z,12.80
2019-05-11T10:55:08.703Z,12.60
2019-05-11T10:57:39.165Z,12.30
2019-05-11T11:00:11.434Z,12.30
2019-05-11T11:02:42.739Z,12.10
2019-05-11T11:05:14.313Z,12.10
2019-05-11T11:07:48.213Z,12.20
2019-05-11T11:10:19.724Z,12.30
2019-05-11T11:12:51.080Z,12.30
2019-05-11T11:15:22.618Z,12.40
2019-05-11T11:17:54.291Z,12.50
2019-05-11T11:20:27.803Z,12.60
2019-05-11T11:22:58.788Z,12.80
2019-05-11T11:25:30.040Z,13.10
2019-05-11T11:28:01.368Z,13.40
2019-05-11T11:30:32.721Z,13.80
2019-05-11T11:33:04.031Z,14.00
2019-05-11T11:35:35.320Z,14.20
2019-05-11T11:38:08.677Z,14.20
2019-05-11T11:40:42.775Z,14.30
2019-05-11T11:43:13.227Z,14.20
2019-05-11T11:45:44.370Z,14.30
2019-05-11T11:48:15.580Z,14.20
2019-05-11T11:50:48.067Z,14.30
2019-05-11T11:53:19.440Z,14.60
2019-05-11T11:55:50.684Z,14.80
2019-05-11T11:58:23.967Z,15.30
2019-05-11T12:00:55.498Z,15.90
2019-05-11T12:03:27.752Z,16.30
2019-05-11T12:05:59.538Z,16.70
2019-05-11T12:08:30.974Z,17.30
2019-05-11T12:11:02.200Z,17.60
2019-05-11T12:13:33.685Z,17.70
2019-05-11T12:16:05.050Z,17.50
2019-05-11T12:18:38.082Z,17.20
2019-05-11T12:21:09.552Z,17.00
2019-05-11T12:23:41.123Z,17.20
2019-05-11T12:26:12.722Z,17.30
2019-05-11T12:28:43.903Z,17.30
2019-05-11T12:31:15.480Z,17.30
2019-05-11T12:33:48.179Z,17.40
2019-05-11T12:36:19.926Z,17.60
2019-05-11T12:38:51.231Z,17.60
2019-05-11T12:41:22.446Z,17.80
2019-05-11T12:43:53.723Z,17.90
2019-05-11T12:46:24.967Z,17.50
2019-05-11T12:48:57.288Z,17.20
2019-05-11T12:51:29.373Z,16.80
2019-05-11T12:54:00.882Z,16.40
2019-05-11T12:56:32.179Z,15.80
2019-05-11T12:59:03.725Z,15.70
2019-05-11T13:01:34.938Z,15.60
2019-05-11T13:04:08.645Z,15.40
2019-05-11T13:06:39.104Z,15.30
2019-05-11T13:09:10.272Z,15.30
2019-05-11T13:11:41.400Z,15.10
2019-05-11T13:14:12.614Z,15.30
2019-05-11T13:16:44.234Z,15.60
2019-05-11T13:19:17.441Z,15.70
2019-05-11T13:21:48.799Z,15.50
2019-05-11T13:24:20.181Z,15.40
2019-05-11T13:26:51.451Z,15.20
2019-05-11T13:29:22.799Z,14.70
2019-05-11T13:31:55.623Z,14.30
2019-05-11T13:34:31.218Z,14.00
2019-05-11T13:37:00.405Z,13.90
2019-05-11T13:39:31.661Z,14.20
2019-05-11T13:42:02.794Z,14.80
2019-05-11T13:44:34.098Z,15.30
2019-05-11T13:47:05.332Z,15.70
2019-05-11T13:49:37.789Z,16.10
2019-05-11T13:52:09.191Z,16.50
2019-05-11T13:54:40.474Z,16.80
2019-05-11T13:57:11.731Z,16.80
2019-05-11T13:59:43.364Z,16.40
2019-05-11T14:02:14.630Z,16.10
2019-05-11T14:04:47.604Z,15.90
2019-05-11T14:07:19.130Z,15.90
2019-05-11T14:09:50.599Z,16.00
2019-05-11T14:12:21.733Z,15.70
2019-05-11T14:14:53.031Z,15.30
2019-05-11T14:17:24.242Z,15.10
2019-05-11T14:19:58.320Z,15.00
2019-05-11T14:22:28.721Z,15.00
2019-05-11T14:24:59.996Z,15.10
2019-05-11T14:27:31.285Z,15.00
2019-05-11T14:30:04.223Z,15.20
2019-05-11T14:32:38.370Z,15.30
2019-05-11T14:35:12.209Z,15.70
2019-05-11T14:37:42.767Z,15.70
2019-05-11T14:40:14.410Z,15.70
2019-05-11T14:42:48.747Z,15.50
2019-05-11T14:45:19.141Z,15.60
2019-05-11T14:47:50.229Z,15.50
2019-05-11T14:50:21.511Z,15.40
2019-05-11T14:52:52.715Z,15.60
2019-05-11T14:55:23.999Z,15.60
2019-05-11T14:57:57.549Z,15.80
2019-05-11T15:00:28.947Z,15.60
2019-05-11T15:03:00.531Z,15.40
2019-05-11T15:05:31.718Z,15.30
2019-05-11T15:08:03.296Z,15.20
2019-05-11T15:10:34.475Z,15.20
2019-05-11T15:13:07.880Z,15.20
2019-05-11T15:15:39.505Z,15.10
2019-05-11T15:18:11.004Z,14.90
2019-05-11T15:20:42.268Z,14.90
2019-05-11T15:23:13.488Z,15.10
2019-05-11T15:25:44.773Z,15.20
2019-05-11T15:28:18.112Z,15.30
2019-05-11T15:30:49.318Z,15.10
2019-05-11T15:33:20.519Z,14.80
2019-05-11T15:35:52.110Z,14.80
2019-05-11T15:38:23.293Z,14.70
2019-05-11T15:40:54.657Z,14.70
2019-05-11T15:43:28.149Z,14.90
2019-05-11T15:45:59.179Z,15.00
2019-05-11T15:48:30.669Z,15.00
2019-05-11T15:51:02.032Z,14.90
2019-05-11T15:53:33.314Z,14.90
2019-05-11T15:56:04.599Z,14.90
2019-05-11T15:58:37.667Z,14.80
2019-05-11T16:01:08.736Z,14.70
2019-05-11T16:03:39.839Z,14.80
2019-05-11T16:06:11.313Z,14.90
2019-05-11T16:08:45.384Z,14.70
2019-05-11T16:11:17.379Z,14.60
2019-05-11T16:13:48.618Z,14.70
2019-05-11T16:16:20.169Z,14.70
2019-05-11T16:18:51.289Z,14.70
2019-05-11T16:21:22.576Z,14.80
2019-05-11T16:23:54.173Z,15.00
2019-05-11T16:26:25.264Z,15.20
2019-05-11T16:28:58.127Z,15.30
2019-05-11T16:31:30.016Z,15.30
2019-05-11T16:34:02.772Z,15.00
2019-05-11T16:36:34.344Z,14.70
2019-05-11T16:39:10.513Z,14.30
2019-05-11T16:41:41.172Z,13.80
2019-05-11T16:44:12.416Z,13.40
2019-05-11T16:46:43.699Z,13.30
2019-05-11T16:49:26.218Z,13.00
2019-05-11T16:51:48.051Z,12.90
2019-05-11T16:54:19.232Z,12.80
2019-05-11T16:56:50.728Z,12.80
2019-05-11T16:59:21.947Z,12.80
2019-05-11T17:01:53.398Z,12.80
2019-05-11T17:04:26.663Z,13.00
2019-05-11T17:06:57.944Z,13.10
2019-05-11T17:09:29.597Z,13.00
2019-05-11T17:12:01.200Z,13.20
2019-05-11T17:14:32.454Z,13.30
2019-05-11T17:17:03.719Z,13.20
2019-05-11T17:19:45.392Z,13.20
2019-05-11T17:22:08.412Z,13.20
2019-05-11T17:24:39.679Z,13.20
2019-05-11T17:27:10.898Z,13.20
2019-05-11T17:29:42.483Z,13.10
2019-05-11T17:32:14.144Z,13.10
2019-05-11T17:34:47.654Z,13.20
2019-05-11T17:37:18.593Z,13.20
2019-05-11T17:39:49.873Z,13.20
2019-05-11T17:42:21.436Z,13.30
2019-05-11T17:44:52.684Z,13.20
2019-05-11T17:47:23.906Z,13.30
2019-05-11T17:50:00.103Z,13.30
2019-05-11T17:52:28.299Z,13.20
2019-05-11T17:54:59.502Z,13.20
2019-05-11T17:57:30.990Z,13.30
2019-05-11T18:00:02.435Z,13.20
2019-05-11T18:02:34.016Z,13.30
2019-05-11T18:05:08.688Z,13.40
2019-05-11T18:07:39.151Z,13.30
2019-05-11T18:10:10.465Z,13.30
2019-05-11T18:12:41.694Z,13.10
2019-05-11T18:15:13.132Z,13.10
2019-05-11T18:17:44.255Z,13.10
2019-05-11T18:20:20.518Z,13.20
2019-05-11T18:22:49.390Z,13.00
2019-05-11T18:25:21.100Z,12.90
2019-05-11T18:27:52.249Z,12.80
2019-05-11T18:30:23.760Z,12.90
2019-05-11T18:32:55.291Z,12.90
2019-05-11T18:35:27.848Z,12.80
2019-05-11T18:37:59.195Z,12.70
2019-05-11T18:40:30.344Z,12.60
2019-05-11T18:43:01.838Z,12.50
2019-05-11T18:45:33.408Z,12.60
2019-05-11T18:48:04.827Z,12.60
2019-05-11T18:50:38.478Z,12.60
2019-05-11T18:53:09.477Z,12.60
2019-05-11T18:55:40.769Z,12.50
2019-05-11T18:58:12.249Z,12.40
2019-05-11T19:00:43.847Z,12.30
2019-05-11T19:03:15.110Z,12.10
2019-05-11T19:05:48.045Z,12.20
2019-05-11T19:08:19.391Z,12.00
2019-05-11T19:10:50.498Z,11.90
2019-05-11T19:13:21.736Z,11.70
2019-05-11T19:15:53.482Z,11.60
2019-05-11T19:18:24.828Z,11.70
2019-05-11T19:20:58.433Z,11.60
2019-05-11T19:23:29.176Z,11.40
2019-05-11T19:26:00.435Z,11.40
2019-05-11T19:28:31.706Z,11.30
2019-05-11T19:31:02.923Z,11.40
2019-05-11T19:33:34.062Z,11.30
2019-05-11T19:36:07.767Z,11.20
2019-05-11T19:38:38.579Z,11.20
2019-05-11T19:41:09.958Z,11.10
2019-05-11T19:43:41.389Z,11.10
2019-05-11T19:46:12.715Z,11.20
2019-05-11T19:48:43.959Z,11.30
2019-05-11T19:51:15.198Z,11.20
2019-05-11T19:53:48.277Z,11.20
2019-05-11T19:56:19.318Z,11.20
2019-05-11T19:58:50.788Z,11.20
2019-05-11T20:01:22.257Z,11.20
2019-05-11T20:03:53.552Z,11.20
2019-05-11T20:06:25.051Z,11.20
2019-05-11T20:08:58.077Z,11.20
2019-05-11T20:11:29.480Z,11.20
2019-05-11T20:14:00.699Z,11.20
2019-05-11T20:16:32.037Z,11.10
2019-05-11T20:19:03.151Z,11.10
2019-05-11T20:21:34.552Z,11.10
2019-05-11T20:24:08.337Z,11.00
2019-05-11T20:26:39.100Z,11.00
2019-05-11T20:29:10.298Z,10.90
2019-05-11T20:31:41.511Z,10.90
2019-05-11T20:34:12.700Z,11.00
2019-05-11T20:36:44.176Z,11.00
2019-05-11T20:39:15.358Z,11.00
2019-05-11T20:41:47.737Z,10.90
2019-05-11T20:44:19.051Z,10.90
2019-05-11T20:46:50.429Z,10.90
2019-05-11T20:49:22.390Z,10.90
2019-05-11T20:51:53.629Z,10.80
2019-05-11T20:54:24.814Z,10.80
2019-05-11T20:56:58.256Z,10.70
2019-05-11T20:59:29.171Z,10.60
2019-05-11T21:02:00.451Z,10.60
2019-05-11T21:04:31.642Z,10.60
2019-05-11T21:07:03.087Z,10.60
2019-05-11T21:09:34.274Z,10.60
2019-05-11T21:12:07.967Z,10.60
2019-05-11T21:14:38.878Z,10.50
2019-05-11T21:17:10.421Z,10.50
2019-05-11T21:19:42.736Z,10.30
2019-05-11T21:22:14.607Z,10.30
2019-05-11T21:24:49.430Z,10.20
2019-05-11T21:27:20.275Z,10.10
2019-05-11T21:29:51.489Z,10.10
2019-05-11T21:32:22.746Z,10.20
2019-05-11T21:34:53.970Z,10.20
2019-05-11T21:37:27.627Z,10.30
2019-05-11T21:39:58.198Z,10.30
2019-05-11T21:42:29.384Z,10.20
2019-05-11T21:45:00.665Z,10.10
2019-05-11T21:47:31.828Z,10.00
2019-05-11T21:50:03.094Z,10.00
2019-05-11T21:52:34.187Z,9.90
2019-05-11T21:55:08.951Z,9.80
2019-05-11T21:57:39.223Z,9.80
2019-05-11T22:00:12.182Z,9.80
2019-05-11T22:02:43.451Z,9.80
2019-05-11T22:05:15.456Z,9.70
2019-05-11T22:07:49.002Z,9.60
2019-05-11T22:10:20.397Z,9.50
2019-05-11T22:12:52.042Z,9.50
2019-05-11T22:15:23.250Z,9.40
2019-05-11T22:17:54.575Z,9.50
2019-05-11T22:20:25.803Z,9.40
2019-05-11T22:22:58.192Z,9.40
2019-05-11T22:25:29.860Z,9.40
2019-05-11T22:28:01.371Z,9.30
2019-05-11T22:30:32.606Z,9.30
2019-05-11T22:33:03.828Z,9.20
2019-05-11T22:35:35.020Z,9.30
2019-05-11T22:38:08.205Z,9.30
2019-05-11T22:40:39.614Z,9.30
2019-05-11T22:43:10.865Z,9.20
2019-05-11T22:45:42.113Z,9.20
2019-05-11T22:48:13.517Z,9.20
2019-05-11T22:50:44.760Z,9.10
2019-05-11T22:53:18.820Z,9.10
2019-05-11T22:55:49.226Z,9.00
2019-05-11T22:58:20.536Z,9.00
2019-05-11T23:00:51.686Z,9.00
2019-05-11T23:03:23.057Z,8.80
2019-05-11T23:05:54.498Z,8.80
2019-05-11T23:08:25.652Z,8.80
2019-05-11T23:10:57.204Z,8.80
2019-05-11T23:13:28.452Z,8.70
2019-05-11T23:15:59.564Z,8.70
2019-05-11T23:18:30.758Z,8.70
2019-05-11T23:21:01.942Z,8.60
2019-05-11T23:23:33.066Z,8.50
2019-05-11T23:26:04.235Z,8.50
2019-05-11T23:28:37.780Z,8.50
2019-05-11T23:31:09.067Z,8.40
2019-05-11T23:33:40.124Z,8.30
2019-05-11T23:36:11.441Z,8.30
2019-05-11T23:38:42.911Z,8.30
2019-05-11T23:41:24.285Z,8.40
2019-05-11T23:43:47.792Z,8.40
2019-05-11T23:46:19.984Z,8.30
2019-05-11T23:48:51.176Z,8.20
2019-05-11T23:51:22.781Z,8.20
2019-05-11T23:53:54.012Z,8.10
2019-05-11T23:56:25.304Z,8.10
2019-05-11T23:58:57.909Z,8.20
